Blythe Airport
KBLH : rendu visible

Aérodrome :











RETROUVEZ-NOUS SUR...

 
LOGIN :

S'inscrire | Disclaimer

   EN    FR    IT 

 









Légende :    VFR   VFR Marginal   IFR   IFR Intensif   IFR Très Intensif
Visi : 
Plafond : 
>= 8 km
>= 3000ft
5 à 8 km
1000 à 3000 ft
1500m à 5 km
500 à 1000 ft
800 à 1500m
200 à 500 ft
< 800m
< 200 ft
Symboles :   Orages  Brouillard  Fortes neiges  Fortes précipitations  Vent > 20 kt






- Altitude de l'aérodrome : 399 ft


KBLH - Blythe

DERNIER METAR :
  • 241352Z AUTO 34006KT 10SM CLR 08/05 A3016 RMK AO2 SLP209 T00830050 PNO

METARs EXPIRÉS :
  • 241252Z AUTO 34006KT 10SM CLR 09/05 A3014 RMK AO2 SLP205 T00890050 PNO
  • 241152Z AUTO 33006KT 10SM CLR 09/05 A3014 RMK AO2 SLP204 6//// 7//// T00940050 10139 20094 56004 PNO

TAF KBLH
Valide du 24 à 12h jusqu'au 25 à 12h UTC


241137Z 2412/2512 VRB04KT P6SM SKC
FM242000 01010G18KT P6SM SKC
FM250500 34008KT P6SM SKC



MET'MAP, la Météo Aéronautique d'un coup d'oeil ! - Copyright ORBIFLY Décembre 2007 - Disclaimer

ORBIFLY MET'MAP TEAM :

Programmation & Développement : Alexandra Zaïnal
Sur une idée originale de : Baudouin d'Aumeries
Assistance à la programmation : Marc-Olivier Méhu
Soutien technique & logistique : Manuel Goepfert

Contact : metmap@orbifly.com




SOURCES & CREDITS :

   NOAA       Earth
Advisory